sensor_id;sensor_type;location;lat;lon;timestamp;P1;durP1;ratioP1;P2;durP2;ratioP2
83781;SDS011;73783;49.924;15.466;2023-11-21T00:01:01;5.38;;;2.40;;
83781;SDS011;73783;49.924;15.466;2023-11-21T00:03:37;5.70;;;3.15;;
83781;SDS011;73783;49.924;15.466;2023-11-21T00:06:03;3.95;;;2.30;;
83781;SDS011;73783;49.924;15.466;2023-11-21T00:08:29;4.80;;;2.50;;
83781;SDS011;73783;49.924;15.466;2023-11-21T00:10:54;5.95;;;2.40;;
83781;SDS011;73783;49.924;15.466;2023-11-21T00:13:20;4.65;;;2.67;;
83781;SDS011;73783;49.924;15.466;2023-11-21T00:15:46;3.80;;;3.10;;
83781;SDS011;73783;49.924;15.466;2023-11-21T00:18:12;4.80;;;2.63;;
83781;SDS011;73783;49.924;15.466;2023-11-21T00:20:38;4.88;;;2.85;;
83781;SDS011;73783;49.924;15.466;2023-11-21T00:23:03;4.35;;;2.70;;
83781;SDS011;73783;49.924;15.466;2023-11-21T00:25:29;5.55;;;2.97;;
83781;SDS011;73783;49.924;15.466;2023-11-21T00:27:56;3.80;;;2.28;;
83781;SDS011;73783;49.924;15.466;2023-11-21T00:30:21;4.25;;;3.08;;
83781;SDS011;73783;49.924;15.466;2023-11-21T00:32:47;4.70;;;3.28;;
83781;SDS011;73783;49.924;15.466;2023-11-21T00:35:13;4.43;;;2.38;;
83781;SDS011;73783;49.924;15.466;2023-11-21T00:37:39;3.95;;;2.75;;
83781;SDS011;73783;49.924;15.466;2023-11-21T00:40:04;6.20;;;2.70;;
83781;SDS011;73783;49.924;15.466;2023-11-21T00:42:31;4.85;;;3.17;;
83781;SDS011;73783;49.924;15.466;2023-11-21T00:44:59;3.88;;;2.05;;
83781;SDS011;73783;49.924;15.466;2023-11-21T00:47:25;3.70;;;2.58;;
83781;SDS011;73783;49.924;15.466;2023-11-21T00:49:50;5.15;;;3.45;;
83781;SDS011;73783;49.924;15.466;2023-11-21T00:52:16;3.40;;;2.50;;
83781;SDS011;73783;49.924;15.466;2023-11-21T00:54:42;5.43;;;2.63;;
83781;SDS011;73783;49.924;15.466;2023-11-21T00:57:08;4.40;;;2.92;;
83781;SDS011;73783;49.924;15.466;2023-11-21T00:59:33;4.68;;;3.70;;
83781;SDS011;73783;49.924;15.466;2023-11-21T01:02:00;6.82;;;3.53;;
83781;SDS011;73783;49.924;15.466;2023-11-21T01:04:26;7.35;;;2.83;;
83781;SDS011;73783;49.924;15.466;2023-11-21T01:06:52;4.43;;;2.38;;
83781;SDS011;73783;49.924;15.466;2023-11-21T01:09:18;7.75;;;2.83;;
83781;SDS011;73783;49.924;15.466;2023-11-21T01:11:44;3.95;;;3.53;;
83781;SDS011;73783;49.924;15.466;2023-11-21T01:14:09;5.18;;;4.28;;
83781;SDS011;73783;49.924;15.466;2023-11-21T01:16:36;4.43;;;2.72;;
83781;SDS011;73783;49.924;15.466;2023-11-21T01:19:01;4.97;;;3.13;;
83781;SDS011;73783;49.924;15.466;2023-11-21T01:21:27;4.05;;;2.38;;
83781;SDS011;73783;49.924;15.466;2023-11-21T01:23:53;3.63;;;2.72;;
83781;SDS011;73783;49.924;15.466;2023-11-21T01:26:20;5.93;;;2.75;;
83781;SDS011;73783;49.924;15.466;2023-11-21T01:28:46;4.22;;;2.42;;
83781;SDS011;73783;49.924;15.466;2023-11-21T01:31:14;4.85;;;2.97;;
83781;SDS011;73783;49.924;15.466;2023-11-21T01:33:40;6.22;;;3.75;;
83781;SDS011;73783;49.924;15.466;2023-11-21T01:36:06;4.82;;;2.45;;
83781;SDS011;73783;49.924;15.466;2023-11-21T01:38:32;5.05;;;2.63;;
83781;SDS011;73783;49.924;15.466;2023-11-21T01:40:58;4.28;;;2.92;;
83781;SDS011;73783;49.924;15.466;2023-11-21T01:43:26;5.50;;;2.50;;
83781;SDS011;73783;49.924;15.466;2023-11-21T01:45:53;4.93;;;2.13;;
83781;SDS011;73783;49.924;15.466;2023-11-21T01:48:22;3.08;;;2.55;;
83781;SDS011;73783;49.924;15.466;2023-11-21T01:50:48;4.45;;;2.63;;
83781;SDS011;73783;49.924;15.466;2023-11-21T01:53:14;3.90;;;2.50;;
83781;SDS011;73783;49.924;15.466;2023-11-21T01:55:40;4.05;;;2.72;;
83781;SDS011;73783;49.924;15.466;2023-11-21T01:58:07;5.43;;;2.80;;
83781;SDS011;73783;49.924;15.466;2023-11-21T02:00:34;4.13;;;2.72;;
83781;SDS011;73783;49.924;15.466;2023-11-21T02:03:00;5.35;;;2.47;;
83781;SDS011;73783;49.924;15.466;2023-11-21T02:05:26;4.97;;;3.95;;
83781;SDS011;73783;49.924;15.466;2023-11-21T02:07:51;4.50;;;2.88;;
83781;SDS011;73783;49.924;15.466;2023-11-21T02:10:18;5.35;;;2.40;;
83781;SDS011;73783;49.924;15.466;2023-11-21T02:12:50;4.97;;;2.67;;
83781;SDS011;73783;49.924;15.466;2023-11-21T02:15:17;5.63;;;3.22;;
83781;SDS011;73783;49.924;15.466;2023-11-21T02:17:46;6.22;;;3.80;;
83781;SDS011;73783;49.924;15.466;2023-11-21T02:20:16;3.83;;;3.10;;
83781;SDS011;73783;49.924;15.466;2023-11-21T02:22:52;6.80;;;4.32;;
83781;SDS011;73783;49.924;15.466;2023-11-21T02:27:53;5.88;;;4.07;;
83781;SDS011;73783;49.924;15.466;2023-11-21T02:30:22;7.32;;;4.05;;
83781;SDS011;73783;49.924;15.466;2023-11-21T02:32:50;19.45;;;10.65;;
83781;SDS011;73783;49.924;15.466;2023-11-21T02:35:18;13.48;;;7.15;;
83781;SDS011;73783;49.924;15.466;2023-11-21T02:37:49;10.32;;;7.43;;
83781;SDS011;73783;49.924;15.466;2023-11-21T02:40:15;14.88;;;7.15;;
83781;SDS011;73783;49.924;15.466;2023-11-21T02:42:52;16.02;;;10.00;;
83781;SDS011;73783;49.924;15.466;2023-11-21T02:45:18;15.18;;;7.80;;
83781;SDS011;73783;49.924;15.466;2023-11-21T02:47:46;13.52;;;8.38;;
83781;SDS011;73783;49.924;15.466;2023-11-21T02:50:12;11.02;;;7.18;;
83781;SDS011;73783;49.924;15.466;2023-11-21T02:52:38;10.30;;;6.30;;
83781;SDS011;73783;49.924;15.466;2023-11-21T02:55:05;9.10;;;5.13;;
83781;SDS011;73783;49.924;15.466;2023-11-21T02:57:32;6.57;;;3.90;;
83781;SDS011;73783;49.924;15.466;2023-11-21T02:59:59;6.60;;;3.85;;
83781;SDS011;73783;49.924;15.466;2023-11-21T03:02:28;5.43;;;4.10;;
83781;SDS011;73783;49.924;15.466;2023-11-21T03:04:54;4.63;;;4.10;;
83781;SDS011;73783;49.924;15.466;2023-11-21T03:07:19;4.07;;;3.45;;
83781;SDS011;73783;49.924;15.466;2023-11-21T03:09:45;5.45;;;3.28;;
83781;SDS011;73783;49.924;15.466;2023-11-21T03:12:11;5.22;;;2.83;;
83781;SDS011;73783;49.924;15.466;2023-11-21T03:14:40;4.00;;;3.60;;
83781;SDS011;73783;49.924;15.466;2023-11-21T03:17:05;3.88;;;3.17;;
83781;SDS011;73783;49.924;15.466;2023-11-21T03:19:32;6.38;;;2.67;;
83781;SDS011;73783;49.924;15.466;2023-11-21T03:21:57;4.50;;;3.92;;
83781;SDS011;73783;49.924;15.466;2023-11-21T03:24:23;6.85;;;2.88;;
83781;SDS011;73783;49.924;15.466;2023-11-21T03:26:48;4.28;;;3.83;;
83781;SDS011;73783;49.924;15.466;2023-11-21T03:29:14;4.97;;;2.58;;
83781;SDS011;73783;49.924;15.466;2023-11-21T03:31:40;5.35;;;3.42;;
83781;SDS011;73783;49.924;15.466;2023-11-21T03:34:06;6.47;;;2.92;;
83781;SDS011;73783;49.924;15.466;2023-11-21T03:36:32;6.22;;;3.42;;
83781;SDS011;73783;49.924;15.466;2023-11-21T03:38:57;4.88;;;2.85;;
83781;SDS011;73783;49.924;15.466;2023-11-21T03:41:23;4.60;;;2.78;;
83781;SDS011;73783;49.924;15.466;2023-11-21T03:43:49;5.45;;;2.20;;
83781;SDS011;73783;49.924;15.466;2023-11-21T03:46:14;3.50;;;3.00;;
83781;SDS011;73783;49.924;15.466;2023-11-21T03:48:40;5.95;;;2.78;;
83781;SDS011;73783;49.924;15.466;2023-11-21T03:51:07;3.22;;;2.90;;
83781;SDS011;73783;49.924;15.466;2023-11-21T03:53:33;3.60;;;2.40;;
83781;SDS011;73783;49.924;15.466;2023-11-21T03:55:58;5.50;;;2.42;;
83781;SDS011;73783;49.924;15.466;2023-11-21T03:58:24;5.20;;;3.28;;
83781;SDS011;73783;49.924;15.466;2023-11-21T04:00:49;3.20;;;2.78;;
83781;SDS011;73783;49.924;15.466;2023-11-21T04:03:15;6.45;;;2.05;;
83781;SDS011;73783;49.924;15.466;2023-11-21T04:05:41;4.10;;;2.20;;
83781;SDS011;73783;49.924;15.466;2023-11-21T04:08:07;11.02;;;2.70;;
83781;SDS011;73783;49.924;15.466;2023-11-21T04:10:32;4.20;;;2.45;;
83781;SDS011;73783;49.924;15.466;2023-11-21T04:12:58;4.20;;;2.58;;
83781;SDS011;73783;49.924;15.466;2023-11-21T04:15:23;5.57;;;2.40;;
83781;SDS011;73783;49.924;15.466;2023-11-21T04:17:49;4.43;;;3.17;;
83781;SDS011;73783;49.924;15.466;2023-11-21T04:20:15;4.38;;;3.35;;
83781;SDS011;73783;49.924;15.466;2023-11-21T04:22:41;5.10;;;3.63;;
83781;SDS011;73783;49.924;15.466;2023-11-21T04:25:12;4.90;;;1.95;;
83781;SDS011;73783;49.924;15.466;2023-11-21T04:27:40;4.72;;;2.75;;
83781;SDS011;73783;49.924;15.466;2023-11-21T04:30:09;2.65;;;2.35;;
83781;SDS011;73783;49.924;15.466;2023-11-21T04:32:35;4.07;;;2.45;;
83781;SDS011;73783;49.924;15.466;2023-11-21T04:35:01;10.82;;;3.30;;
83781;SDS011;73783;49.924;15.466;2023-11-21T04:37:27;7.22;;;3.85;;
83781;SDS011;73783;49.924;15.466;2023-11-21T04:39:52;3.58;;;2.72;;
83781;SDS011;73783;49.924;15.466;2023-11-21T04:42:18;4.50;;;2.90;;
83781;SDS011;73783;49.924;15.466;2023-11-21T04:44:43;5.00;;;2.33;;
83781;SDS011;73783;49.924;15.466;2023-11-21T04:47:09;3.63;;;2.13;;
83781;SDS011;73783;49.924;15.466;2023-11-21T04:49:35;4.45;;;3.13;;
83781;SDS011;73783;49.924;15.466;2023-11-21T04:52:01;6.82;;;3.10;;
83781;SDS011;73783;49.924;15.466;2023-11-21T04:54:28;11.95;;;5.40;;
83781;SDS011;73783;49.924;15.466;2023-11-21T04:56:56;6.85;;;4.45;;
83781;SDS011;73783;49.924;15.466;2023-11-21T04:59:21;5.93;;;3.75;;
83781;SDS011;73783;49.924;15.466;2023-11-21T05:01:50;9.65;;;4.20;;
83781;SDS011;73783;49.924;15.466;2023-11-21T05:04:16;6.43;;;3.58;;
83781;SDS011;73783;49.924;15.466;2023-11-21T05:06:41;5.15;;;2.90;;
83781;SDS011;73783;49.924;15.466;2023-11-21T05:09:07;3.65;;;3.05;;
83781;SDS011;73783;49.924;15.466;2023-11-21T05:11:37;4.28;;;2.85;;
83781;SDS011;73783;49.924;15.466;2023-11-21T05:14:03;5.55;;;2.95;;
83781;SDS011;73783;49.924;15.466;2023-11-21T05:16:30;5.97;;;3.00;;
83781;SDS011;73783;49.924;15.466;2023-11-21T05:18:56;4.05;;;3.45;;
83781;SDS011;73783;49.924;15.466;2023-11-21T05:21:26;5.63;;;2.75;;
83781;SDS011;73783;49.924;15.466;2023-11-21T05:23:52;7.22;;;3.08;;
83781;SDS011;73783;49.924;15.466;2023-11-21T05:26:18;3.72;;;2.83;;
83781;SDS011;73783;49.924;15.466;2023-11-21T05:28:46;3.38;;;3.08;;
83781;SDS011;73783;49.924;15.466;2023-11-21T05:31:13;4.13;;;3.72;;
83781;SDS011;73783;49.924;15.466;2023-11-21T05:33:38;4.68;;;2.95;;
83781;SDS011;73783;49.924;15.466;2023-11-21T05:36:04;3.17;;;2.72;;
83781;SDS011;73783;49.924;15.466;2023-11-21T05:38:33;7.18;;;3.92;;
83781;SDS011;73783;49.924;15.466;2023-11-21T05:40:59;5.20;;;4.38;;
83781;SDS011;73783;49.924;15.466;2023-11-21T05:43:24;4.18;;;3.17;;
83781;SDS011;73783;49.924;15.466;2023-11-21T05:45:50;7.80;;;5.63;;
83781;SDS011;73783;49.924;15.466;2023-11-21T05:48:16;4.22;;;3.20;;
83781;SDS011;73783;49.924;15.466;2023-11-21T05:50:41;5.05;;;3.60;;
83781;SDS011;73783;49.924;15.466;2023-11-21T05:53:07;4.80;;;3.92;;
83781;SDS011;73783;49.924;15.466;2023-11-21T05:55:35;6.28;;;4.38;;
83781;SDS011;73783;49.924;15.466;2023-11-21T05:58:00;11.70;;;5.03;;
83781;SDS011;73783;49.924;15.466;2023-11-21T06:00:26;6.97;;;4.88;;
83781;SDS011;73783;49.924;15.466;2023-11-21T06:02:53;6.40;;;4.95;;
83781;SDS011;73783;49.924;15.466;2023-11-21T06:05:19;7.03;;;5.28;;
83781;SDS011;73783;49.924;15.466;2023-11-21T06:07:48;6.97;;;4.65;;
83781;SDS011;73783;49.924;15.466;2023-11-21T06:10:14;8.32;;;5.13;;
83781;SDS011;73783;49.924;15.466;2023-11-21T06:12:43;7.07;;;5.05;;
83781;SDS011;73783;49.924;15.466;2023-11-21T06:15:09;9.50;;;6.05;;
83781;SDS011;73783;49.924;15.466;2023-11-21T06:17:38;9.80;;;5.85;;
83781;SDS011;73783;49.924;15.466;2023-11-21T06:20:05;9.88;;;6.80;;
83781;SDS011;73783;49.924;15.466;2023-11-21T06:22:41;16.15;;;7.53;;
83781;SDS011;73783;49.924;15.466;2023-11-21T06:25:08;13.13;;;7.60;;
83781;SDS011;73783;49.924;15.466;2023-11-21T06:27:36;14.23;;;6.55;;
83781;SDS011;73783;49.924;15.466;2023-11-21T06:30:03;9.32;;;5.97;;
83781;SDS011;73783;49.924;15.466;2023-11-21T06:32:30;11.05;;;7.35;;
83781;SDS011;73783;49.924;15.466;2023-11-21T06:34:56;10.88;;;6.47;;
83781;SDS011;73783;49.924;15.466;2023-11-21T06:37:25;9.27;;;6.57;;
83781;SDS011;73783;49.924;15.466;2023-11-21T06:39:52;8.88;;;6.25;;
83781;SDS011;73783;49.924;15.466;2023-11-21T06:42:18;8.20;;;6.25;;
83781;SDS011;73783;49.924;15.466;2023-11-21T06:44:48;6.95;;;5.07;;
83781;SDS011;73783;49.924;15.466;2023-11-21T06:47:14;8.00;;;6.03;;
83781;SDS011;73783;49.924;15.466;2023-11-21T06:49:41;5.95;;;4.72;;
83781;SDS011;73783;49.924;15.466;2023-11-21T06:52:08;6.95;;;5.53;;
83781;SDS011;73783;49.924;15.466;2023-11-21T06:54:33;6.85;;;5.32;;
83781;SDS011;73783;49.924;15.466;2023-11-21T06:56:59;6.60;;;5.13;;
83781;SDS011;73783;49.924;15.466;2023-11-21T06:59:26;6.65;;;4.28;;
83781;SDS011;73783;49.924;15.466;2023-11-21T07:01:54;5.97;;;4.90;;
83781;SDS011;73783;49.924;15.466;2023-11-21T07:04:20;5.07;;;4.40;;
83781;SDS011;73783;49.924;15.466;2023-11-21T07:06:45;7.43;;;5.38;;
83781;SDS011;73783;49.924;15.466;2023-11-21T07:09:11;4.65;;;3.90;;
83781;SDS011;73783;49.924;15.466;2023-11-21T07:11:37;5.82;;;3.92;;
83781;SDS011;73783;49.924;15.466;2023-11-21T07:14:04;5.57;;;3.35;;
83781;SDS011;73783;49.924;15.466;2023-11-21T07:16:35;3.78;;;3.30;;
83781;SDS011;73783;49.924;15.466;2023-11-21T07:19:05;4.47;;;3.15;;
83781;SDS011;73783;49.924;15.466;2023-11-21T07:21:33;3.92;;;3.00;;
83781;SDS011;73783;49.924;15.466;2023-11-21T07:24:03;3.83;;;3.53;;
83781;SDS011;73783;49.924;15.466;2023-11-21T07:26:29;3.17;;;2.78;;
83781;SDS011;73783;49.924;15.466;2023-11-21T07:28:55;3.00;;;2.47;;
83781;SDS011;73783;49.924;15.466;2023-11-21T07:31:21;4.13;;;3.33;;
83781;SDS011;73783;49.924;15.466;2023-11-21T07:33:48;3.85;;;3.20;;
83781;SDS011;73783;49.924;15.466;2023-11-21T07:36:14;6.63;;;3.22;;
83781;SDS011;73783;49.924;15.466;2023-11-21T07:38:41;4.53;;;3.00;;
83781;SDS011;73783;49.924;15.466;2023-11-21T07:41:07;3.72;;;2.65;;
83781;SDS011;73783;49.924;15.466;2023-11-21T07:43:35;6.25;;;3.22;;
83781;SDS011;73783;49.924;15.466;2023-11-21T07:46:01;4.55;;;3.65;;
83781;SDS011;73783;49.924;15.466;2023-11-21T07:48:32;7.43;;;4.40;;
83781;SDS011;73783;49.924;15.466;2023-11-21T07:50:58;5.82;;;3.67;;
83781;SDS011;73783;49.924;15.466;2023-11-21T07:53:27;6.03;;;5.18;;
83781;SDS011;73783;49.924;15.466;2023-11-21T07:56:04;5.90;;;3.65;;
83781;SDS011;73783;49.924;15.466;2023-11-21T07:58:32;5.10;;;4.20;;
83781;SDS011;73783;49.924;15.466;2023-11-21T08:01:01;5.85;;;3.53;;
83781;SDS011;73783;49.924;15.466;2023-11-21T08:03:27;4.13;;;3.22;;
83781;SDS011;73783;49.924;15.466;2023-11-21T08:05:59;4.78;;;4.25;;
83781;SDS011;73783;49.924;15.466;2023-11-21T08:08:24;4.53;;;3.47;;
83781;SDS011;73783;49.924;15.466;2023-11-21T08:10:51;5.55;;;3.67;;
83781;SDS011;73783;49.924;15.466;2023-11-21T08:13:25;4.90;;;3.22;;
83781;SDS011;73783;49.924;15.466;2023-11-21T08:15:55;6.22;;;3.08;;
83781;SDS011;73783;49.924;15.466;2023-11-21T08:18:22;7.70;;;3.53;;
83781;SDS011;73783;49.924;15.466;2023-11-21T08:20:48;6.97;;;3.97;;
83781;SDS011;73783;49.924;15.466;2023-11-21T08:23:17;4.93;;;3.33;;
83781;SDS011;73783;49.924;15.466;2023-11-21T08:25:46;4.45;;;4.00;;
83781;SDS011;73783;49.924;15.466;2023-11-21T08:28:12;4.82;;;3.50;;
83781;SDS011;73783;49.924;15.466;2023-11-21T08:30:39;5.35;;;4.38;;
83781;SDS011;73783;49.924;15.466;2023-11-21T08:33:06;7.20;;;3.58;;
83781;SDS011;73783;49.924;15.466;2023-11-21T08:35:34;4.38;;;3.78;;
83781;SDS011;73783;49.924;15.466;2023-11-21T08:38:00;4.43;;;3.92;;
83781;SDS011;73783;49.924;15.466;2023-11-21T08:40:26;8.82;;;4.13;;
83781;SDS011;73783;49.924;15.466;2023-11-21T08:42:51;7.05;;;4.45;;
83781;SDS011;73783;49.924;15.466;2023-11-21T08:45:18;8.23;;;5.97;;
83781;SDS011;73783;49.924;15.466;2023-11-21T08:47:44;7.35;;;4.10;;
83781;SDS011;73783;49.924;15.466;2023-11-21T08:50:10;6.80;;;3.90;;
83781;SDS011;73783;49.924;15.466;2023-11-21T08:52:37;8.25;;;5.47;;
83781;SDS011;73783;49.924;15.466;2023-11-21T08:55:07;6.57;;;5.57;;
83781;SDS011;73783;49.924;15.466;2023-11-21T08:57:37;7.75;;;4.25;;
83781;SDS011;73783;49.924;15.466;2023-11-21T09:00:06;6.32;;;3.70;;
83781;SDS011;73783;49.924;15.466;2023-11-21T09:02:39;4.85;;;3.78;;
83781;SDS011;73783;49.924;15.466;2023-11-21T09:05:09;3.28;;;2.95;;
83781;SDS011;73783;49.924;15.466;2023-11-21T09:07:36;5.45;;;4.50;;
83781;SDS011;73783;49.924;15.466;2023-11-21T09:10:05;5.40;;;2.85;;
83781;SDS011;73783;49.924;15.466;2023-11-21T09:12:34;4.05;;;2.72;;
83781;SDS011;73783;49.924;15.466;2023-11-21T09:15:02;4.25;;;3.17;;
83781;SDS011;73783;49.924;15.466;2023-11-21T09:17:29;6.03;;;4.50;;
83781;SDS011;73783;49.924;15.466;2023-11-21T09:19:55;4.60;;;3.53;;
83781;SDS011;73783;49.924;15.466;2023-11-21T09:22:22;4.25;;;3.03;;
83781;SDS011;73783;49.924;15.466;2023-11-21T09:24:50;7.45;;;3.22;;
83781;SDS011;73783;49.924;15.466;2023-11-21T09:27:16;4.07;;;2.83;;
83781;SDS011;73783;49.924;15.466;2023-11-21T09:29:43;4.53;;;2.38;;
83781;SDS011;73783;49.924;15.466;2023-11-21T09:32:08;5.10;;;2.95;;
83781;SDS011;73783;49.924;15.466;2023-11-21T09:34:39;4.35;;;3.38;;
83781;SDS011;73783;49.924;15.466;2023-11-21T09:37:05;6.47;;;3.15;;
83781;SDS011;73783;49.924;15.466;2023-11-21T09:39:35;7.35;;;3.78;;
83781;SDS011;73783;49.924;15.466;2023-11-21T09:47:39;5.32;;;4.53;;
83781;SDS011;73783;49.924;15.466;2023-11-21T09:50:05;5.57;;;3.72;;
83781;SDS011;73783;49.924;15.466;2023-11-21T09:52:36;5.13;;;4.03;;
83781;SDS011;73783;49.924;15.466;2023-11-21T09:55:13;6.25;;;5.38;;
83781;SDS011;73783;49.924;15.466;2023-11-21T09:57:41;5.88;;;3.80;;
83781;SDS011;73783;49.924;15.466;2023-11-21T10:00:08;5.53;;;3.00;;
83781;SDS011;73783;49.924;15.466;2023-11-21T10:02:37;5.40;;;3.47;;
83781;SDS011;73783;49.924;15.466;2023-11-21T10:05:06;3.85;;;3.10;;
83781;SDS011;73783;49.924;15.466;2023-11-21T10:07:32;5.22;;;2.95;;
83781;SDS011;73783;49.924;15.466;2023-11-21T10:09:59;4.60;;;4.03;;
83781;SDS011;73783;49.924;15.466;2023-11-21T10:12:26;4.70;;;3.00;;
83781;SDS011;73783;49.924;15.466;2023-11-21T10:14:53;3.60;;;2.42;;
83781;SDS011;73783;49.924;15.466;2023-11-21T10:17:23;4.38;;;3.13;;
83781;SDS011;73783;49.924;15.466;2023-11-21T10:19:54;4.80;;;2.67;;
83781;SDS011;73783;49.924;15.466;2023-11-21T10:22:22;6.88;;;3.92;;
83781;SDS011;73783;49.924;15.466;2023-11-21T10:24:49;6.43;;;4.28;;
83781;SDS011;73783;49.924;15.466;2023-11-21T10:27:15;4.63;;;3.70;;
83781;SDS011;73783;49.924;15.466;2023-11-21T10:29:41;4.13;;;3.30;;
83781;SDS011;73783;49.924;15.466;2023-11-21T10:32:07;4.78;;;3.45;;
83781;SDS011;73783;49.924;15.466;2023-11-21T10:34:32;5.95;;;4.28;;
83781;SDS011;73783;49.924;15.466;2023-11-21T10:36:58;4.82;;;2.83;;
83781;SDS011;73783;49.924;15.466;2023-11-21T10:39:36;4.50;;;3.53;;
83781;SDS011;73783;49.924;15.466;2023-11-21T10:42:02;6.88;;;3.42;;
83781;SDS011;73783;49.924;15.466;2023-11-21T10:44:28;9.65;;;4.70;;
83781;SDS011;73783;49.924;15.466;2023-11-21T10:46:54;11.15;;;5.05;;
83781;SDS011;73783;49.924;15.466;2023-11-21T10:49:24;8.40;;;5.55;;
83781;SDS011;73783;49.924;15.466;2023-11-21T10:51:50;10.65;;;5.78;;
83781;SDS011;73783;49.924;15.466;2023-11-21T10:54:19;11.15;;;4.53;;
83781;SDS011;73783;49.924;15.466;2023-11-21T10:56:45;6.63;;;3.35;;
83781;SDS011;73783;49.924;15.466;2023-11-21T11:01:42;5.35;;;2.60;;
83781;SDS011;73783;49.924;15.466;2023-11-21T11:04:11;4.00;;;3.03;;
83781;SDS011;73783;49.924;15.466;2023-11-21T11:06:42;4.90;;;3.70;;
83781;SDS011;73783;49.924;15.466;2023-11-21T11:09:12;5.63;;;3.38;;
83781;SDS011;73783;49.924;15.466;2023-11-21T11:11:42;4.20;;;3.38;;
83781;SDS011;73783;49.924;15.466;2023-11-21T11:16:38;6.60;;;3.85;;
83781;SDS011;73783;49.924;15.466;2023-11-21T11:19:09;4.30;;;3.03;;
83781;SDS011;73783;49.924;15.466;2023-11-21T11:21:43;5.28;;;3.95;;
83781;SDS011;73783;49.924;15.466;2023-11-21T11:24:36;7.20;;;3.58;;
83781;SDS011;73783;49.924;15.466;2023-11-21T11:30:11;9.50;;;4.63;;
83781;SDS011;73783;49.924;15.466;2023-11-21T11:35:24;7.28;;;3.53;;
83781;SDS011;73783;49.924;15.466;2023-11-21T11:37:58;6.10;;;4.03;;
83781;SDS011;73783;49.924;15.466;2023-11-21T11:40:25;6.55;;;3.63;;
83781;SDS011;73783;49.924;15.466;2023-11-21T11:43:04;7.40;;;3.83;;
83781;SDS011;73783;49.924;15.466;2023-11-21T11:45:32;7.03;;;3.80;;
83781;SDS011;73783;49.924;15.466;2023-11-21T11:48:00;6.22;;;3.55;;
83781;SDS011;73783;49.924;15.466;2023-11-21T11:50:29;6.35;;;4.03;;
83781;SDS011;73783;49.924;15.466;2023-11-21T11:52:55;7.15;;;3.95;;
83781;SDS011;73783;49.924;15.466;2023-11-21T11:55:23;6.38;;;4.05;;
83781;SDS011;73783;49.924;15.466;2023-11-21T11:57:51;6.45;;;4.40;;
83781;SDS011;73783;49.924;15.466;2023-11-21T12:02:51;6.47;;;4.03;;
83781;SDS011;73783;49.924;15.466;2023-11-21T12:05:19;6.32;;;4.30;;
83781;SDS011;73783;49.924;15.466;2023-11-21T12:07:47;6.55;;;3.97;;
83781;SDS011;73783;49.924;15.466;2023-11-21T12:10:18;6.03;;;2.78;;
83781;SDS011;73783;49.924;15.466;2023-11-21T12:12:50;5.38;;;2.78;;
83781;SDS011;73783;49.924;15.466;2023-11-21T12:15:20;9.40;;;5.75;;
83781;SDS011;73783;49.924;15.466;2023-11-21T12:17:47;8.32;;;4.80;;
83781;SDS011;73783;49.924;15.466;2023-11-21T12:20:15;10.65;;;5.35;;
83781;SDS011;73783;49.924;15.466;2023-11-21T12:22:44;5.22;;;3.03;;
83781;SDS011;73783;49.924;15.466;2023-11-21T12:25:15;8.52;;;5.53;;
83781;SDS011;73783;49.924;15.466;2023-11-21T12:27:47;9.05;;;5.88;;
83781;SDS011;73783;49.924;15.466;2023-11-21T12:30:19;14.27;;;7.07;;
83781;SDS011;73783;49.924;15.466;2023-11-21T12:32:53;6.63;;;3.67;;
83781;SDS011;73783;49.924;15.466;2023-11-21T12:35:24;6.97;;;3.47;;
83781;SDS011;73783;49.924;15.466;2023-11-21T12:37:52;6.93;;;3.40;;
83781;SDS011;73783;49.924;15.466;2023-11-21T12:40:19;10.40;;;3.55;;
83781;SDS011;73783;49.924;15.466;2023-11-21T12:42:49;6.65;;;4.80;;
83781;SDS011;73783;49.924;15.466;2023-11-21T12:48:04;6.90;;;4.35;;
83781;SDS011;73783;49.924;15.466;2023-11-21T12:50:36;8.35;;;4.32;;
83781;SDS011;73783;49.924;15.466;2023-11-21T12:53:06;7.85;;;4.20;;
83781;SDS011;73783;49.924;15.466;2023-11-21T12:55:35;6.43;;;4.03;;
83781;SDS011;73783;49.924;15.466;2023-11-21T12:58:02;7.90;;;4.32;;
83781;SDS011;73783;49.924;15.466;2023-11-21T13:00:38;6.50;;;4.15;;
83781;SDS011;73783;49.924;15.466;2023-11-21T13:03:05;5.70;;;4.55;;
83781;SDS011;73783;49.924;15.466;2023-11-21T13:05:35;11.18;;;4.68;;
83781;SDS011;73783;49.924;15.466;2023-11-21T13:08:04;5.45;;;3.88;;
83781;SDS011;73783;49.924;15.466;2023-11-21T13:10:33;6.75;;;3.95;;
83781;SDS011;73783;49.924;15.466;2023-11-21T13:13:07;6.28;;;3.65;;
83781;SDS011;73783;49.924;15.466;2023-11-21T13:15:39;6.65;;;4.32;;
83781;SDS011;73783;49.924;15.466;2023-11-21T13:18:06;8.60;;;4.80;;
83781;SDS011;73783;49.924;15.466;2023-11-21T13:20:32;6.72;;;4.68;;
83781;SDS011;73783;49.924;15.466;2023-11-21T13:22:59;6.13;;;4.18;;
83781;SDS011;73783;49.924;15.466;2023-11-21T13:25:29;7.13;;;4.22;;
83781;SDS011;73783;49.924;15.466;2023-11-21T13:27:56;4.38;;;3.45;;
83781;SDS011;73783;49.924;15.466;2023-11-21T13:30:24;6.47;;;3.53;;
83781;SDS011;73783;49.924;15.466;2023-11-21T13:32:59;5.78;;;4.18;;
83781;SDS011;73783;49.924;15.466;2023-11-21T13:35:27;6.50;;;4.15;;
83781;SDS011;73783;49.924;15.466;2023-11-21T13:38:21;5.53;;;3.67;;
83781;SDS011;73783;49.924;15.466;2023-11-21T13:40:51;8.35;;;4.18;;
83781;SDS011;73783;49.924;15.466;2023-11-21T13:43:21;7.50;;;5.28;;
83781;SDS011;73783;49.924;15.466;2023-11-21T13:45:51;7.97;;;4.78;;
83781;SDS011;73783;49.924;15.466;2023-11-21T13:48:35;6.40;;;4.63;;
83781;SDS011;73783;49.924;15.466;2023-11-21T13:51:07;6.63;;;4.40;;
83781;SDS011;73783;49.924;15.466;2023-11-21T13:53:45;8.40;;;4.85;;
83781;SDS011;73783;49.924;15.466;2023-11-21T13:56:18;5.47;;;4.97;;
83781;SDS011;73783;49.924;15.466;2023-11-21T13:58:52;7.88;;;4.43;;
83781;SDS011;73783;49.924;15.466;2023-11-21T14:01:19;7.45;;;4.80;;
83781;SDS011;73783;49.924;15.466;2023-11-21T14:03:58;8.95;;;5.18;;
83781;SDS011;73783;49.924;15.466;2023-11-21T14:06:45;8.65;;;5.13;;
83781;SDS011;73783;49.924;15.466;2023-11-21T14:09:16;8.65;;;4.45;;
83781;SDS011;73783;49.924;15.466;2023-11-21T14:11:50;10.93;;;5.28;;
83781;SDS011;73783;49.924;15.466;2023-11-21T14:14:26;10.57;;;5.82;;
83781;SDS011;73783;49.924;15.466;2023-11-21T14:16:53;7.97;;;5.80;;
83781;SDS011;73783;49.924;15.466;2023-11-21T14:19:21;13.60;;;5.82;;
83781;SDS011;73783;49.924;15.466;2023-11-21T14:21:47;9.75;;;5.88;;
83781;SDS011;73783;49.924;15.466;2023-11-21T14:24:15;8.00;;;5.13;;
83781;SDS011;73783;49.924;15.466;2023-11-21T14:26:45;11.50;;;6.20;;
83781;SDS011;73783;49.924;15.466;2023-11-21T14:29:12;26.98;;;11.38;;
83781;SDS011;73783;49.924;15.466;2023-11-21T14:31:41;18.88;;;9.40;;
83781;SDS011;73783;49.924;15.466;2023-11-21T14:34:07;20.23;;;10.80;;
83781;SDS011;73783;49.924;15.466;2023-11-21T14:36:33;15.65;;;7.85;;
83781;SDS011;73783;49.924;15.466;2023-11-21T14:39:00;19.90;;;10.00;;
83781;SDS011;73783;49.924;15.466;2023-11-21T14:41:26;23.92;;;11.98;;
83781;SDS011;73783;49.924;15.466;2023-11-21T14:43:53;20.88;;;12.20;;
83781;SDS011;73783;49.924;15.466;2023-11-21T14:46:20;14.25;;;8.80;;
83781;SDS011;73783;49.924;15.466;2023-11-21T14:48:46;15.02;;;9.55;;
83781;SDS011;73783;49.924;15.466;2023-11-21T14:51:25;17.63;;;9.95;;
83781;SDS011;73783;49.924;15.466;2023-11-21T14:53:56;16.73;;;8.93;;
83781;SDS011;73783;49.924;15.466;2023-11-21T14:56:35;9.85;;;6.05;;
83781;SDS011;73783;49.924;15.466;2023-11-21T14:59:02;10.07;;;6.63;;
83781;SDS011;73783;49.924;15.466;2023-11-21T15:01:37;13.32;;;7.10;;